Terminal Aerodrome Forecast
Issued by NWS

Home | Current Version | Previous Version | Text Only | Print | Product List | Glossary On
Versions: 1 2 3 4 5 6 7 8 9 10 11 12 13
000
FTUS41 KBGM 282332
TAFITH
TAF
KITH 282332Z 2900/2924 VRB05KT P6SM BKN080
     FM290400 VRB03KT P6SM SCT250
     FM291500 20005KT P6SM BKN040
     FM291800 21007KT P6SM -SHRA BKN040 PROB30 2920/2924 TSRA
      BKN035CB=

USA.gov is the U.S. government's official web portal to all federal, state and local government web resources and services.